»·PEaware :: DCM205 KBZN-KGPI

DCM205 :: KBZN-KGPI

FLIGHT INFORMATION

Flight Status: Arrived
Operator:
DotCom
More flights by this operator :: More flights under this callsign
Pilot: Chris S. (2433)
Aircraft: DEHAVILLAND DASH 8 400
(DH8D)
More flights by this aircraft type
Origin: KBZN Gallatin
United States
Destination: KGPI Glacier Park Intl
United States
More flights between these airports :: More routes between these airports
Route: TEERX4 HIA V21 HLN SKOTT
File this flight plan on PilotEdge
Remarks:
Altitude:
(Current/Filed)
26,000ft
Speed:
(Current/Filed)
350kts
Departed: 06-Jan-21 07:47 PM
Arrived: 06-Jan-21 08:39 PM
Distance/Time
Traveled:
198nm/0:51
Distance/Time
To Go:
Arrived

Flight Plot

Page will automatically refresh every two minutes.

Flight plan parsing failed; only flown route is shown


Map Options




Map Legend


Flown Route
Filed Route
Departure Airport
Arrival Airport
Navaid (VOR, NDB)
Fix

Horizontal Profiles

Position Reports

Time Latitude Longitude Heading Altitude Ground
Speed
06-Jan-21 19:31 45.778513 -111.160003 237 4478ft 0kts
06-Jan-21 19:32 45.778513 -111.160003 237 4478ft 0kts
06-Jan-21 19:33 45.778513 -111.160003 237 4478ft 0kts
06-Jan-21 19:34 45.778513 -111.160003 237 4478ft 0kts
06-Jan-21 19:35 45.778513 -111.160003 237 4478ft 0kts
06-Jan-21 19:36 45.778513 -111.160003 237 4478ft 0kts
06-Jan-21 19:37 45.778513 -111.160004 237 4478ft 0kts
06-Jan-21 19:38 45.778513 -111.160004 237 4478ft 0kts
06-Jan-21 19:39 45.778513 -111.160004 237 4478ft 0kts
06-Jan-21 19:40 45.778513 -111.160004 237 4478ft 0kts
06-Jan-21 19:41 45.778513 -111.160004 237 4478ft 0kts
06-Jan-21 19:42 45.778787 -111.159828 20 4478ft 7kts
06-Jan-21 19:43 45.782033 -111.162157 316 4478ft 21kts
06-Jan-21 19:44 45.786134 -111.167890 315 4478ft 13kts
06-Jan-21 19:45 45.787230 -111.165297 135 4478ft 22kts
06-Jan-21 19:46 45.764151 -111.134711 146 5395ft 152kts
06-Jan-21 19:47 45.725760 -111.164373 229 7788ft 168kts
06-Jan-21 19:48 45.704976 -111.225662 269 10343ft 169kts
06-Jan-21 19:49 45.709277 -111.296230 271 12164ft 198kts
06-Jan-21 19:50 45.717479 -111.382735 275 13781ft 229kts
06-Jan-21 19:51 45.728042 -111.474290 275 15567ft 233kts
06-Jan-21 19:52 45.738494 -111.567227 274 17126ft 238kts
06-Jan-21 19:53 45.750163 -111.661612 280 18497ft 245kts
06-Jan-21 19:54 45.771264 -111.756161 282 19691ft 251kts
06-Jan-21 19:55 45.792691 -111.852763 281 20746ft 256kts
06-Jan-21 19:56 45.814376 -111.951473 281 21690ft 260kts
06-Jan-21 19:57 45.836207 -112.051491 281 22530ft 264kts
06-Jan-21 19:58 45.874877 -112.141414 329 23243ft 299kts
06-Jan-21 19:59 45.960412 -112.141951 7 23832ft 318kts
06-Jan-21 20:00 46.045868 -112.116756 8 24750ft 310kts
06-Jan-21 20:01 46.131282 -112.092043 7 25332ft 312kts
06-Jan-21 20:02 46.217332 -112.067176 7 25874ft 315kts
06-Jan-21 20:03 46.305389 -112.041707 8 26104ft 332kts
06-Jan-21 20:04 46.398290 -112.014582 8 26107ft 349kts
06-Jan-21 20:05 46.494727 -111.986412 8 26103ft 359kts
06-Jan-21 20:06 46.593910 -111.962101 351 26095ft 359kts
06-Jan-21 20:07 46.671058 -112.037527 308 26103ft 340kts
06-Jan-21 20:08 46.741313 -112.132847 311 26099ft 348kts
06-Jan-21 20:09 46.813261 -112.227616 310 26099ft 350kts
06-Jan-21 20:10 46.885309 -112.324214 310 26096ft 352kts
06-Jan-21 20:11 46.957448 -112.421360 310 26095ft 353kts
06-Jan-21 20:12 47.029661 -112.518852 310 26091ft 355kts
06-Jan-21 20:13 47.102226 -112.617424 310 26087ft 356kts
06-Jan-21 20:14 47.174738 -112.716040 309 26085ft 356kts
06-Jan-21 20:15 47.230273 -112.830264 291 26084ft 341kts
06-Jan-21 20:16 47.276422 -112.952996 292 26085ft 343kts
06-Jan-21 20:17 47.322650 -113.075431 291 26086ft 343kts
06-Jan-21 20:18 47.368984 -113.198850 291 26088ft 344kts
06-Jan-21 20:19 47.415028 -113.321830 292 25685ft 339kts
06-Jan-21 20:20 47.459965 -113.442738 291 24458ft 333kts
06-Jan-21 20:21 47.503914 -113.561825 291 23287ft 327kts
06-Jan-21 20:22 47.546920 -113.678963 292 22284ft 320kts
06-Jan-21 20:23 47.588973 -113.794373 291 20950ft 321kts
06-Jan-21 20:24 47.631272 -113.911112 292 19502ft 322kts
06-Jan-21 20:25 47.673657 -114.027702 293 18100ft 320kts
06-Jan-21 20:26 47.717443 -114.142239 302 16699ft 322kts
06-Jan-21 20:27 47.781856 -114.235799 310 15306ft 324kts
06-Jan-21 20:28 47.846634 -114.328318 310 13904ft 321kts
06-Jan-21 20:29 47.910526 -114.420669 310 12502ft 318kts
06-Jan-21 20:30 47.973719 -114.507157 315 11569ft 307kts
06-Jan-21 20:31 48.048955 -114.551420 18 9728ft 298kts
06-Jan-21 20:33 48.106460 -114.475865 41 7756ft 264kts
06-Jan-21 20:34 48.161090 -114.411510 35 6253ft 233kts
06-Jan-21 20:35 48.208670 -114.361898 34 5149ft 184kts
06-Jan-21 20:36 48.248148 -114.319043 36 4167ft 175kts
06-Jan-21 20:37 48.281663 -114.285313 33 3396ft 131kts
06-Jan-21 20:38 48.308083 -114.257923 34 2977ft 56kts
06-Jan-21 20:39 48.310858 -114.253519 154 2976ft 0kts
06-Jan-21 20:40 48.308541 -114.252842 144 2976ft 12kts
06-Jan-21 20:41 48.308352 -114.252641 144 2976ft 0kts
06-Jan-21 20:42 48.308352 -114.252641 144 2976ft 0kts
06-Jan-21 20:43 48.308352 -114.252641 144 2976ft 0kts

Navigation Log

Ident Type
Flight plan parsing failed, navigation log unavailable